ENKB

Kristiansund , Kvernberget Airport

Kvernberget, Norway
METAR ENKB 260250Z AUTO 29004KT 270V330 9999 OVC013/// M01/M03 Q1039 RMK WIND 745FT 31005KT
Observed Flight Rules
Feb-26 @ 02:50 UTC (27 minutes ago) Marginal Visual Flight Rules
Wind Visibility Clouds
290° at 4 knots 10,000+ meters
  • Overcast at 1,300' AGL
Temperatures Readings
Current -1°C / 30°F
Dewpoint -3°C / 27°F
Humidity 86%
Altimeter 30.68" Hg
Pressure 1039 hPa
Elevation 62
METAR ENKB 260250Z AUTO 29004KT 270V330 9999 OVC013/// M01/M03 Q1039 RMK WIND 745FT 31005KT
Observed Flight Rules
Feb-26 @ 02:50 UTC
(27 minutes ago)
MVFR
Wind Visibility
290° at 4 knots 10,000+ meters
Clouds
  • Overcast at 1,300' AGL
Temperature Dewpoint
-1°C / 30°F -3°C / 27°F
Humidity Altimeter Pressure
86% 30.68" Hg 1039 hPa